sensor_id;sensor_type;location;lat;lon;timestamp;P1;durP1;ratioP1;P2;durP2;ratioP2
8626;SDS011;4351;51.422;6.794;2022-12-18T00:01:27;17.90;;;8.70;;
8626;SDS011;4351;51.422;6.794;2022-12-18T00:03:57;15.77;;;8.60;;
8626;SDS011;4351;51.422;6.794;2022-12-18T00:06:26;14.03;;;8.87;;
8626;SDS011;4351;51.422;6.794;2022-12-18T00:08:56;14.90;;;8.23;;
8626;SDS011;4351;51.422;6.794;2022-12-18T00:11:26;18.10;;;8.67;;
8626;SDS011;4351;51.422;6.794;2022-12-18T00:13:57;17.30;;;9.00;;
8626;SDS011;4351;51.422;6.794;2022-12-18T00:16:28;17.37;;;8.87;;
8626;SDS011;4351;51.422;6.794;2022-12-18T00:18:57;21.33;;;9.27;;
8626;SDS011;4351;51.422;6.794;2022-12-18T00:21:25;23.03;;;8.83;;
8626;SDS011;4351;51.422;6.794;2022-12-18T00:23:54;16.50;;;8.23;;
8626;SDS011;4351;51.422;6.794;2022-12-18T00:26:23;19.63;;;8.23;;
8626;SDS011;4351;51.422;6.794;2022-12-18T00:28:58;17.73;;;7.93;;
8626;SDS011;4351;51.422;6.794;2022-12-18T00:31:30;16.83;;;8.10;;
8626;SDS011;4351;51.422;6.794;2022-12-18T00:34:06;17.67;;;8.37;;
8626;SDS011;4351;51.422;6.794;2022-12-18T00:36:34;16.47;;;8.63;;
8626;SDS011;4351;51.422;6.794;2022-12-18T00:39:03;16.80;;;8.30;;
8626;SDS011;4351;51.422;6.794;2022-12-18T00:41:33;17.83;;;8.00;;
8626;SDS011;4351;51.422;6.794;2022-12-18T00:44:19;18.27;;;7.67;;
8626;SDS011;4351;51.422;6.794;2022-12-18T00:46:48;15.90;;;8.00;;
8626;SDS011;4351;51.422;6.794;2022-12-18T00:49:17;15.97;;;8.13;;
8626;SDS011;4351;51.422;6.794;2022-12-18T00:51:46;13.60;;;7.90;;
8626;SDS011;4351;51.422;6.794;2022-12-18T00:54:14;16.60;;;8.53;;
8626;SDS011;4351;51.422;6.794;2022-12-18T00:56:43;15.33;;;8.20;;
8626;SDS011;4351;51.422;6.794;2022-12-18T00:59:15;17.37;;;8.63;;
8626;SDS011;4351;51.422;6.794;2022-12-18T01:01:43;15.70;;;7.97;;
8626;SDS011;4351;51.422;6.794;2022-12-18T01:04:13;15.23;;;8.20;;
8626;SDS011;4351;51.422;6.794;2022-12-18T01:06:44;17.80;;;8.10;;
8626;SDS011;4351;51.422;6.794;2022-12-18T01:09:12;16.63;;;7.43;;
8626;SDS011;4351;51.422;6.794;2022-12-18T01:11:41;13.67;;;7.23;;
8626;SDS011;4351;51.422;6.794;2022-12-18T01:14:09;11.73;;;6.77;;
8626;SDS011;4351;51.422;6.794;2022-12-18T01:16:38;15.53;;;7.73;;
8626;SDS011;4351;51.422;6.794;2022-12-18T01:19:06;16.70;;;7.53;;
8626;SDS011;4351;51.422;6.794;2022-12-18T01:21:35;17.73;;;8.97;;
8626;SDS011;4351;51.422;6.794;2022-12-18T01:24:03;15.50;;;8.30;;
8626;SDS011;4351;51.422;6.794;2022-12-18T01:26:32;16.87;;;7.53;;
8626;SDS011;4351;51.422;6.794;2022-12-18T01:29:00;13.53;;;7.63;;
8626;SDS011;4351;51.422;6.794;2022-12-18T01:31:29;15.40;;;7.83;;
8626;SDS011;4351;51.422;6.794;2022-12-18T01:34:01;14.67;;;7.07;;
8626;SDS011;4351;51.422;6.794;2022-12-18T01:36:30;12.90;;;6.63;;
8626;SDS011;4351;51.422;6.794;2022-12-18T01:39:03;16.13;;;7.37;;
8626;SDS011;4351;51.422;6.794;2022-12-18T01:41:34;16.07;;;7.33;;
8626;SDS011;4351;51.422;6.794;2022-12-18T01:47:23;12.57;;;6.23;;
8626;SDS011;4351;51.422;6.794;2022-12-18T01:49:53;11.53;;;6.33;;
8626;SDS011;4351;51.422;6.794;2022-12-18T01:52:23;11.10;;;6.20;;
8626;SDS011;4351;51.422;6.794;2022-12-18T01:54:54;12.20;;;6.20;;
8626;SDS011;4351;51.422;6.794;2022-12-18T01:57:25;11.33;;;6.43;;
8626;SDS011;4351;51.422;6.794;2022-12-18T01:59:53;11.67;;;6.47;;
8626;SDS011;4351;51.422;6.794;2022-12-18T02:02:39;13.90;;;7.00;;
8626;SDS011;4351;51.422;6.794;2022-12-18T02:05:07;13.63;;;6.60;;
8626;SDS011;4351;51.422;6.794;2022-12-18T02:07:40;11.33;;;6.27;;
8626;SDS011;4351;51.422;6.794;2022-12-18T02:10:17;13.57;;;6.80;;
8626;SDS011;4351;51.422;6.794;2022-12-18T02:12:53;12.97;;;6.20;;
8626;SDS011;4351;51.422;6.794;2022-12-18T02:15:30;15.10;;;6.97;;
8626;SDS011;4351;51.422;6.794;2022-12-18T02:18:05;14.17;;;7.03;;
8626;SDS011;4351;51.422;6.794;2022-12-18T02:20:39;12.27;;;6.97;;
8626;SDS011;4351;51.422;6.794;2022-12-18T02:23:16;12.47;;;7.13;;
8626;SDS011;4351;51.422;6.794;2022-12-18T02:26:12;15.90;;;7.63;;
8626;SDS011;4351;51.422;6.794;2022-12-18T02:28:49;13.37;;;6.97;;
8626;SDS011;4351;51.422;6.794;2022-12-18T02:31:21;14.00;;;6.80;;
8626;SDS011;4351;51.422;6.794;2022-12-18T02:33:53;14.27;;;6.57;;
8626;SDS011;4351;51.422;6.794;2022-12-18T02:36:26;12.27;;;6.30;;
8626;SDS011;4351;51.422;6.794;2022-12-18T02:38:59;16.60;;;7.30;;
8626;SDS011;4351;51.422;6.794;2022-12-18T02:41:32;12.67;;;6.63;;
8626;SDS011;4351;51.422;6.794;2022-12-18T02:44:06;11.93;;;6.87;;
8626;SDS011;4351;51.422;6.794;2022-12-18T02:46:36;14.70;;;7.47;;
8626;SDS011;4351;51.422;6.794;2022-12-18T02:49:12;15.00;;;6.90;;
8626;SDS011;4351;51.422;6.794;2022-12-18T02:51:52;12.10;;;6.97;;
8626;SDS011;4351;51.422;6.794;2022-12-18T02:54:36;13.87;;;7.53;;
8626;SDS011;4351;51.422;6.794;2022-12-18T02:57:27;15.43;;;7.40;;
8626;SDS011;4351;51.422;6.794;2022-12-18T03:00:03;13.83;;;7.03;;
8626;SDS011;4351;51.422;6.794;2022-12-18T03:02:37;11.07;;;6.47;;
8626;SDS011;4351;51.422;6.794;2022-12-18T03:05:13;12.77;;;6.50;;
8626;SDS011;4351;51.422;6.794;2022-12-18T03:07:46;14.33;;;7.23;;
8626;SDS011;4351;51.422;6.794;2022-12-18T03:10:23;13.97;;;6.90;;
8626;SDS011;4351;51.422;6.794;2022-12-18T03:12:58;13.80;;;6.97;;
8626;SDS011;4351;51.422;6.794;2022-12-18T03:15:31;18.13;;;6.93;;
8626;SDS011;4351;51.422;6.794;2022-12-18T03:18:09;13.73;;;6.87;;
8626;SDS011;4351;51.422;6.794;2022-12-18T03:20:41;14.07;;;6.77;;
8626;SDS011;4351;51.422;6.794;2022-12-18T03:23:15;11.43;;;6.63;;
8626;SDS011;4351;51.422;6.794;2022-12-18T03:25:51;13.07;;;6.40;;
8626;SDS011;4351;51.422;6.794;2022-12-18T03:28:25;12.03;;;6.20;;
8626;SDS011;4351;51.422;6.794;2022-12-18T03:31:02;12.30;;;6.50;;
8626;SDS011;4351;51.422;6.794;2022-12-18T03:33:34;12.83;;;6.80;;
8626;SDS011;4351;51.422;6.794;2022-12-18T03:36:07;12.50;;;6.47;;
8626;SDS011;4351;51.422;6.794;2022-12-18T03:38:37;12.80;;;6.27;;
8626;SDS011;4351;51.422;6.794;2022-12-18T03:41:08;12.83;;;7.07;;
8626;SDS011;4351;51.422;6.794;2022-12-18T03:44:06;13.50;;;6.77;;
8626;SDS011;4351;51.422;6.794;2022-12-18T03:46:44;12.00;;;6.33;;
8626;SDS011;4351;51.422;6.794;2022-12-18T03:49:20;13.73;;;7.30;;
8626;SDS011;4351;51.422;6.794;2022-12-18T03:51:57;12.17;;;6.90;;
8626;SDS011;4351;51.422;6.794;2022-12-18T03:54:31;13.23;;;6.80;;
8626;SDS011;4351;51.422;6.794;2022-12-18T03:57:09;14.37;;;6.80;;
8626;SDS011;4351;51.422;6.794;2022-12-18T03:59:45;12.03;;;6.30;;
8626;SDS011;4351;51.422;6.794;2022-12-18T04:02:23;11.10;;;6.13;;
8626;SDS011;4351;51.422;6.794;2022-12-18T04:04:58;10.50;;;6.07;;
8626;SDS011;4351;51.422;6.794;2022-12-18T04:07:30;10.87;;;6.13;;
8626;SDS011;4351;51.422;6.794;2022-12-18T04:10:00;12.43;;;6.70;;
8626;SDS011;4351;51.422;6.794;2022-12-18T04:12:30;14.37;;;7.00;;
8626;SDS011;4351;51.422;6.794;2022-12-18T04:15:02;11.20;;;6.67;;
8626;SDS011;4351;51.422;6.794;2022-12-18T04:17:31;12.13;;;6.27;;
8626;SDS011;4351;51.422;6.794;2022-12-18T04:20:00;11.17;;;6.50;;
8626;SDS011;4351;51.422;6.794;2022-12-18T04:22:31;9.93;;;5.90;;
8626;SDS011;4351;51.422;6.794;2022-12-18T04:24:59;12.50;;;6.47;;
8626;SDS011;4351;51.422;6.794;2022-12-18T04:27:35;10.17;;;6.07;;
8626;SDS011;4351;51.422;6.794;2022-12-18T04:30:09;10.10;;;5.77;;
8626;SDS011;4351;51.422;6.794;2022-12-18T04:32:45;10.73;;;6.23;;
8626;SDS011;4351;51.422;6.794;2022-12-18T04:35:25;10.33;;;6.17;;
8626;SDS011;4351;51.422;6.794;2022-12-18T04:37:53;10.00;;;6.50;;
8626;SDS011;4351;51.422;6.794;2022-12-18T04:40:31;10.50;;;6.00;;
8626;SDS011;4351;51.422;6.794;2022-12-18T04:43:16;8.37;;;5.20;;
8626;SDS011;4351;51.422;6.794;2022-12-18T04:46:16;8.90;;;5.10;;
8626;SDS011;4351;51.422;6.794;2022-12-18T04:49:19;9.87;;;5.73;;
8626;SDS011;4351;51.422;6.794;2022-12-18T04:51:47;9.70;;;5.50;;
8626;SDS011;4351;51.422;6.794;2022-12-18T04:54:15;10.10;;;5.67;;
8626;SDS011;4351;51.422;6.794;2022-12-18T04:56:46;8.97;;;5.23;;
8626;SDS011;4351;51.422;6.794;2022-12-18T04:59:15;13.03;;;5.77;;
8626;SDS011;4351;51.422;6.794;2022-12-18T05:01:44;11.80;;;5.80;;
8626;SDS011;4351;51.422;6.794;2022-12-18T05:04:13;11.47;;;6.03;;
8626;SDS011;4351;51.422;6.794;2022-12-18T05:06:45;11.67;;;5.50;;
8626;SDS011;4351;51.422;6.794;2022-12-18T05:09:17;10.07;;;5.33;;
8626;SDS011;4351;51.422;6.794;2022-12-18T05:11:45;9.77;;;5.60;;
8626;SDS011;4351;51.422;6.794;2022-12-18T05:14:14;9.50;;;5.43;;
8626;SDS011;4351;51.422;6.794;2022-12-18T05:16:42;10.20;;;5.77;;
8626;SDS011;4351;51.422;6.794;2022-12-18T05:19:15;10.90;;;5.57;;
8626;SDS011;4351;51.422;6.794;2022-12-18T05:21:44;9.97;;;5.70;;
8626;SDS011;4351;51.422;6.794;2022-12-18T05:24:29;10.27;;;5.83;;
8626;SDS011;4351;51.422;6.794;2022-12-18T05:27:01;9.67;;;5.60;;
8626;SDS011;4351;51.422;6.794;2022-12-18T05:29:37;10.83;;;5.87;;
8626;SDS011;4351;51.422;6.794;2022-12-18T05:32:05;7.90;;;4.90;;
8626;SDS011;4351;51.422;6.794;2022-12-18T05:34:34;11.30;;;5.80;;
8626;SDS011;4351;51.422;6.794;2022-12-18T05:37:02;11.30;;;5.83;;
8626;SDS011;4351;51.422;6.794;2022-12-18T05:39:30;10.77;;;5.63;;
8626;SDS011;4351;51.422;6.794;2022-12-18T05:41:58;13.33;;;6.10;;
8626;SDS011;4351;51.422;6.794;2022-12-18T05:44:26;8.93;;;5.40;;
8626;SDS011;4351;51.422;6.794;2022-12-18T05:46:58;9.97;;;5.47;;
8626;SDS011;4351;51.422;6.794;2022-12-18T05:49:26;11.10;;;5.30;;
8626;SDS011;4351;51.422;6.794;2022-12-18T05:52:01;12.27;;;5.77;;
8626;SDS011;4351;51.422;6.794;2022-12-18T05:54:39;11.43;;;6.00;;
8626;SDS011;4351;51.422;6.794;2022-12-18T05:57:10;14.93;;;6.10;;
8626;SDS011;4351;51.422;6.794;2022-12-18T05:59:39;17.63;;;7.10;;
8626;SDS011;4351;51.422;6.794;2022-12-18T06:02:09;13.97;;;6.87;;
8626;SDS011;4351;51.422;6.794;2022-12-18T06:04:37;12.73;;;5.87;;
8626;SDS011;4351;51.422;6.794;2022-12-18T06:07:07;11.73;;;6.20;;
8626;SDS011;4351;51.422;6.794;2022-12-18T06:09:35;14.63;;;5.87;;
8626;SDS011;4351;51.422;6.794;2022-12-18T06:12:03;11.90;;;5.27;;
8626;SDS011;4351;51.422;6.794;2022-12-18T06:14:40;9.63;;;5.07;;
8626;SDS011;4351;51.422;6.794;2022-12-18T06:17:28;10.47;;;5.30;;
8626;SDS011;4351;51.422;6.794;2022-12-18T06:19:58;10.00;;;5.30;;
8626;SDS011;4351;51.422;6.794;2022-12-18T06:22:35;9.93;;;5.03;;
8626;SDS011;4351;51.422;6.794;2022-12-18T06:25:10;8.90;;;5.20;;
8626;SDS011;4351;51.422;6.794;2022-12-18T06:27:38;10.40;;;5.23;;
8626;SDS011;4351;51.422;6.794;2022-12-18T06:30:08;8.27;;;5.10;;
8626;SDS011;4351;51.422;6.794;2022-12-18T06:32:39;8.77;;;5.13;;
8626;SDS011;4351;51.422;6.794;2022-12-18T06:35:08;8.67;;;4.93;;
8626;SDS011;4351;51.422;6.794;2022-12-18T06:37:42;11.83;;;5.07;;
8626;SDS011;4351;51.422;6.794;2022-12-18T06:40:13;8.90;;;4.80;;
8626;SDS011;4351;51.422;6.794;2022-12-18T06:42:47;8.33;;;5.47;;
8626;SDS011;4351;51.422;6.794;2022-12-18T06:45:17;8.47;;;4.83;;
8626;SDS011;4351;51.422;6.794;2022-12-18T06:47:48;9.83;;;5.37;;
8626;SDS011;4351;51.422;6.794;2022-12-18T06:50:23;10.40;;;5.50;;
8626;SDS011;4351;51.422;6.794;2022-12-18T06:52:54;9.33;;;5.03;;
8626;SDS011;4351;51.422;6.794;2022-12-18T06:55:24;9.70;;;5.00;;
8626;SDS011;4351;51.422;6.794;2022-12-18T06:58:12;8.63;;;4.63;;
8626;SDS011;4351;51.422;6.794;2022-12-18T07:00:41;11.13;;;5.47;;
8626;SDS011;4351;51.422;6.794;2022-12-18T07:03:09;8.83;;;5.10;;
8626;SDS011;4351;51.422;6.794;2022-12-18T07:05:39;8.67;;;5.10;;
8626;SDS011;4351;51.422;6.794;2022-12-18T07:08:08;10.20;;;5.13;;
8626;SDS011;4351;51.422;6.794;2022-12-18T07:10:40;9.97;;;5.00;;
8626;SDS011;4351;51.422;6.794;2022-12-18T07:13:13;7.87;;;5.00;;
8626;SDS011;4351;51.422;6.794;2022-12-18T07:15:41;7.87;;;4.90;;
8626;SDS011;4351;51.422;6.794;2022-12-18T07:18:10;11.00;;;5.80;;
8626;SDS011;4351;51.422;6.794;2022-12-18T07:20:38;11.17;;;5.10;;
8626;SDS011;4351;51.422;6.794;2022-12-18T07:23:06;10.53;;;5.33;;
8626;SDS011;4351;51.422;6.794;2022-12-18T07:25:36;7.20;;;4.87;;
8626;SDS011;4351;51.422;6.794;2022-12-18T07:28:04;10.33;;;5.20;;
8626;SDS011;4351;51.422;6.794;2022-12-18T07:30:36;9.40;;;5.13;;
8626;SDS011;4351;51.422;6.794;2022-12-18T07:33:04;11.77;;;5.90;;
8626;SDS011;4351;51.422;6.794;2022-12-18T07:35:32;10.30;;;5.13;;
8626;SDS011;4351;51.422;6.794;2022-12-18T07:38:07;10.30;;;5.10;;
8626;SDS011;4351;51.422;6.794;2022-12-18T07:40:36;11.20;;;4.97;;
8626;SDS011;4351;51.422;6.794;2022-12-18T07:43:04;11.00;;;5.10;;
8626;SDS011;4351;51.422;6.794;2022-12-18T07:45:32;10.40;;;5.47;;
8626;SDS011;4351;51.422;6.794;2022-12-18T07:48:00;11.53;;;5.70;;
8626;SDS011;4351;51.422;6.794;2022-12-18T07:50:28;9.87;;;5.17;;
8626;SDS011;4351;51.422;6.794;2022-12-18T07:52:56;12.17;;;5.07;;
8626;SDS011;4351;51.422;6.794;2022-12-18T07:55:24;12.07;;;5.60;;
8626;SDS011;4351;51.422;6.794;2022-12-18T07:57:56;11.63;;;5.83;;
8626;SDS011;4351;51.422;6.794;2022-12-18T08:00:26;13.13;;;5.53;;
8626;SDS011;4351;51.422;6.794;2022-12-18T08:02:54;12.73;;;5.40;;
8626;SDS011;4351;51.422;6.794;2022-12-18T08:05:22;10.17;;;5.40;;
8626;SDS011;4351;51.422;6.794;2022-12-18T08:07:51;12.57;;;5.77;;
8626;SDS011;4351;51.422;6.794;2022-12-18T08:10:21;11.57;;;5.93;;
8626;SDS011;4351;51.422;6.794;2022-12-18T08:12:49;12.67;;;5.83;;
8626;SDS011;4351;51.422;6.794;2022-12-18T08:15:19;12.93;;;6.80;;
8626;SDS011;4351;51.422;6.794;2022-12-18T08:17:47;12.73;;;6.57;;
8626;SDS011;4351;51.422;6.794;2022-12-18T08:20:15;15.00;;;6.43;;
8626;SDS011;4351;51.422;6.794;2022-12-18T08:22:44;12.90;;;6.73;;
8626;SDS011;4351;51.422;6.794;2022-12-18T08:25:12;14.67;;;7.27;;
8626;SDS011;4351;51.422;6.794;2022-12-18T08:27:40;17.27;;;9.13;;
8626;SDS011;4351;51.422;6.794;2022-12-18T08:30:09;14.23;;;7.33;;
8626;SDS011;4351;51.422;6.794;2022-12-18T08:32:39;16.73;;;9.60;;
8626;SDS011;4351;51.422;6.794;2022-12-18T08:35:09;18.03;;;9.10;;
8626;SDS011;4351;51.422;6.794;2022-12-18T08:37:38;17.07;;;9.60;;
8626;SDS011;4351;51.422;6.794;2022-12-18T08:40:08;15.50;;;8.23;;
8626;SDS011;4351;51.422;6.794;2022-12-18T08:42:37;15.37;;;8.53;;
8626;SDS011;4351;51.422;6.794;2022-12-18T08:45:22;16.33;;;9.47;;
8626;SDS011;4351;51.422;6.794;2022-12-18T08:47:52;17.63;;;10.00;;
8626;SDS011;4351;51.422;6.794;2022-12-18T08:50:20;20.90;;;10.93;;
8626;SDS011;4351;51.422;6.794;2022-12-18T08:52:48;21.63;;;11.10;;
8626;SDS011;4351;51.422;6.794;2022-12-18T08:55:16;22.93;;;11.83;;
8626;SDS011;4351;51.422;6.794;2022-12-18T08:57:47;24.40;;;13.17;;
8626;SDS011;4351;51.422;6.794;2022-12-18T09:00:15;21.33;;;12.20;;
8626;SDS011;4351;51.422;6.794;2022-12-18T09:02:44;21.43;;;12.87;;
8626;SDS011;4351;51.422;6.794;2022-12-18T09:05:13;19.97;;;12.03;;
8626;SDS011;4351;51.422;6.794;2022-12-18T09:07:41;22.70;;;12.27;;
8626;SDS011;4351;51.422;6.794;2022-12-18T09:10:10;22.37;;;11.63;;
8626;SDS011;4351;51.422;6.794;2022-12-18T09:12:39;23.67;;;11.93;;
8626;SDS011;4351;51.422;6.794;2022-12-18T09:15:09;23.20;;;12.23;;
8626;SDS011;4351;51.422;6.794;2022-12-18T09:17:38;20.23;;;11.53;;
8626;SDS011;4351;51.422;6.794;2022-12-18T09:20:06;23.67;;;12.10;;
8626;SDS011;4351;51.422;6.794;2022-12-18T09:22:40;24.83;;;12.23;;
8626;SDS011;4351;51.422;6.794;2022-12-18T09:25:08;22.13;;;11.77;;
8626;SDS011;4351;51.422;6.794;2022-12-18T09:27:36;19.80;;;10.30;;
8626;SDS011;4351;51.422;6.794;2022-12-18T09:30:08;20.33;;;10.73;;
8626;SDS011;4351;51.422;6.794;2022-12-18T09:32:40;16.03;;;9.47;;
8626;SDS011;4351;51.422;6.794;2022-12-18T09:35:08;16.67;;;9.03;;
8626;SDS011;4351;51.422;6.794;2022-12-18T09:37:36;14.07;;;8.17;;
8626;SDS011;4351;51.422;6.794;2022-12-18T09:40:09;15.50;;;7.67;;
8626;SDS011;4351;51.422;6.794;2022-12-18T09:42:41;11.93;;;6.57;;
8626;SDS011;4351;51.422;6.794;2022-12-18T09:45:18;14.70;;;7.50;;
8626;SDS011;4351;51.422;6.794;2022-12-18T09:47:51;10.77;;;6.03;;
8626;SDS011;4351;51.422;6.794;2022-12-18T09:50:24;13.27;;;7.00;;
8626;SDS011;4351;51.422;6.794;2022-12-18T09:53:12;9.80;;;5.37;;
8626;SDS011;4351;51.422;6.794;2022-12-18T09:55:50;8.53;;;4.80;;
8626;SDS011;4351;51.422;6.794;2022-12-18T09:58:37;10.37;;;5.23;;
8626;SDS011;4351;51.422;6.794;2022-12-18T10:01:12;8.93;;;5.50;;
8626;SDS011;4351;51.422;6.794;2022-12-18T10:04:07;8.00;;;4.53;;
8626;SDS011;4351;51.422;6.794;2022-12-18T10:06:41;10.27;;;5.33;;
8626;SDS011;4351;51.422;6.794;2022-12-18T10:09:20;11.93;;;5.30;;
8626;SDS011;4351;51.422;6.794;2022-12-18T10:12:04;9.10;;;5.20;;
8626;SDS011;4351;51.422;6.794;2022-12-18T10:14:45;8.33;;;4.57;;
8626;SDS011;4351;51.422;6.794;2022-12-18T10:17:22;8.33;;;4.97;;
8626;SDS011;4351;51.422;6.794;2022-12-18T10:20:13;13.70;;;5.73;;
8626;SDS011;4351;51.422;6.794;2022-12-18T10:22:53;10.30;;;5.30;;
8626;SDS011;4351;51.422;6.794;2022-12-18T10:25:50;9.73;;;5.10;;
8626;SDS011;4351;51.422;6.794;2022-12-18T10:28:55;9.70;;;5.40;;
8626;SDS011;4351;51.422;6.794;2022-12-18T10:31:31;11.63;;;5.40;;
8626;SDS011;4351;51.422;6.794;2022-12-18T10:34:07;8.77;;;5.00;;
8626;SDS011;4351;51.422;6.794;2022-12-18T10:36:37;11.63;;;5.43;;
8626;SDS011;4351;51.422;6.794;2022-12-18T10:39:14;11.30;;;5.50;;
8626;SDS011;4351;51.422;6.794;2022-12-18T10:41:50;16.87;;;5.83;;
8626;SDS011;4351;51.422;6.794;2022-12-18T10:44:21;12.63;;;5.77;;
8626;SDS011;4351;51.422;6.794;2022-12-18T10:47:02;9.80;;;5.27;;
8626;SDS011;4351;51.422;6.794;2022-12-18T10:49:37;13.43;;;5.37;;
8626;SDS011;4351;51.422;6.794;2022-12-18T10:52:15;8.40;;;5.10;;
8626;SDS011;4351;51.422;6.794;2022-12-18T10:54:48;11.40;;;5.70;;
8626;SDS011;4351;51.422;6.794;2022-12-18T10:57:29;12.33;;;5.67;;
8626;SDS011;4351;51.422;6.794;2022-12-18T11:03:11;13.27;;;5.80;;
8626;SDS011;4351;51.422;6.794;2022-12-18T11:06:01;14.87;;;6.07;;
8626;SDS011;4351;51.422;6.794;2022-12-18T11:08:37;11.43;;;5.27;;
8626;SDS011;4351;51.422;6.794;2022-12-18T11:11:14;10.33;;;5.83;;
8626;SDS011;4351;51.422;6.794;2022-12-18T11:13:53;11.87;;;6.43;;
8626;SDS011;4351;51.422;6.794;2022-12-18T11:16:42;15.33;;;6.07;;
8626;SDS011;4351;51.422;6.794;2022-12-18T11:19:33;11.57;;;5.90;;
8626;SDS011;4351;51.422;6.794;2022-12-18T11:22:17;17.53;;;6.67;;
8626;SDS011;4351;51.422;6.794;2022-12-18T11:24:52;12.50;;;6.17;;
8626;SDS011;4351;51.422;6.794;2022-12-18T11:27:47;13.97;;;6.33;;
8626;SDS011;4351;51.422;6.794;2022-12-18T11:30:21;11.00;;;6.03;;
8626;SDS011;4351;51.422;6.794;2022-12-18T11:32:54;11.60;;;6.10;;
8626;SDS011;4351;51.422;6.794;2022-12-18T11:35:40;15.50;;;6.10;;
8626;SDS011;4351;51.422;6.794;2022-12-18T11:38:20;13.70;;;6.13;;
8626;SDS011;4351;51.422;6.794;2022-12-18T11:40:55;14.77;;;6.47;;
8626;SDS011;4351;51.422;6.794;2022-12-18T11:43:27;11.63;;;6.50;;
8626;SDS011;4351;51.422;6.794;2022-12-18T11:46:13;15.50;;;6.83;;
8626;SDS011;4351;51.422;6.794;2022-12-18T11:48:54;16.37;;;7.97;;
8626;SDS011;4351;51.422;6.794;2022-12-18T11:51:41;13.47;;;6.40;;
8626;SDS011;4351;51.422;6.794;2022-12-18T11:54:17;15.90;;;7.20;;
8626;SDS011;4351;51.422;6.794;2022-12-18T11:56:49;10.70;;;6.40;;
8626;SDS011;4351;51.422;6.794;2022-12-18T11:59:25;12.83;;;7.17;;
8626;SDS011;4351;51.422;6.794;2022-12-18T12:02:09;10.93;;;6.03;;
8626;SDS011;4351;51.422;6.794;2022-12-18T12:07:51;11.33;;;6.83;;
8626;SDS011;4351;51.422;6.794;2022-12-18T12:10:25;12.93;;;6.23;;
8626;SDS011;4351;51.422;6.794;2022-12-18T12:13:10;11.10;;;6.50;;
8626;SDS011;4351;51.422;6.794;2022-12-18T12:16:04;13.30;;;7.07;;
8626;SDS011;4351;51.422;6.794;2022-12-18T12:19:16;13.47;;;6.93;;
8626;SDS011;4351;51.422;6.794;2022-12-18T12:22:03;12.53;;;7.13;;
8626;SDS011;4351;51.422;6.794;2022-12-18T12:24:44;10.33;;;6.53;;
8626;SDS011;4351;51.422;6.794;2022-12-18T12:27:25;13.43;;;6.53;;
8626;SDS011;4351;51.422;6.794;2022-12-18T12:30:16;11.63;;;6.53;;
8626;SDS011;4351;51.422;6.794;2022-12-18T12:32:59;13.07;;;6.73;;
8626;SDS011;4351;51.422;6.794;2022-12-18T12:35:42;11.43;;;7.07;;
8626;SDS011;4351;51.422;6.794;2022-12-18T12:38:23;14.87;;;6.87;;
8626;SDS011;4351;51.422;6.794;2022-12-18T12:40:54;12.63;;;7.40;;
8626;SDS011;4351;51.422;6.794;2022-12-18T12:43:42;13.53;;;6.83;;
8626;SDS011;4351;51.422;6.794;2022-12-18T12:46:17;14.13;;;7.40;;
8626;SDS011;4351;51.422;6.794;2022-12-18T12:48:49;24.63;;;8.10;;
8626;SDS011;4351;51.422;6.794;2022-12-18T12:51:21;14.00;;;7.90;;
8626;SDS011;4351;51.422;6.794;2022-12-18T12:53:53;13.60;;;7.47;;
8626;SDS011;4351;51.422;6.794;2022-12-18T12:56:24;15.53;;;7.73;;
8626;SDS011;4351;51.422;6.794;2022-12-18T12:59:10;15.53;;;8.00;;
8626;SDS011;4351;51.422;6.794;2022-12-18T13:01:48;16.97;;;7.33;;
8626;SDS011;4351;51.422;6.794;2022-12-18T13:04:23;14.90;;;8.10;;
8626;SDS011;4351;51.422;6.794;2022-12-18T13:07:00;13.57;;;8.07;;
8626;SDS011;4351;51.422;6.794;2022-12-18T13:09:34;15.40;;;8.10;;
8626;SDS011;4351;51.422;6.794;2022-12-18T13:12:56;15.23;;;7.57;;
8626;SDS011;4351;51.422;6.794;2022-12-18T13:15:28;14.67;;;8.40;;
8626;SDS011;4351;51.422;6.794;2022-12-18T13:18:13;16.57;;;8.07;;
8626;SDS011;4351;51.422;6.794;2022-12-18T13:20:43;15.50;;;7.97;;
8626;SDS011;4351;51.422;6.794;2022-12-18T13:23:30;15.80;;;8.40;;
8626;SDS011;4351;51.422;6.794;2022-12-18T13:28:59;15.30;;;9.07;;
8626;SDS011;4351;51.422;6.794;2022-12-18T13:34:42;18.80;;;9.03;;
8626;SDS011;4351;51.422;6.794;2022-12-18T13:43:28;15.03;;;9.10;;
8626;SDS011;4351;51.422;6.794;2022-12-18T13:46:00;20.87;;;10.90;;
8626;SDS011;4351;51.422;6.794;2022-12-18T13:48:32;17.07;;;9.00;;
8626;SDS011;4351;51.422;6.794;2022-12-18T13:51:04;16.27;;;8.50;;
8626;SDS011;4351;51.422;6.794;2022-12-18T13:53:35;17.40;;;9.47;;
8626;SDS011;4351;51.422;6.794;2022-12-18T13:56:07;17.43;;;9.30;;
8626;SDS011;4351;51.422;6.794;2022-12-18T13:58:35;19.53;;;10.00;;
8626;SDS011;4351;51.422;6.794;2022-12-18T14:01:10;17.20;;;9.07;;
8626;SDS011;4351;51.422;6.794;2022-12-18T14:03:49;18.87;;;9.90;;
8626;SDS011;4351;51.422;6.794;2022-12-18T14:06:35;17.53;;;9.33;;
8626;SDS011;4351;51.422;6.794;2022-12-18T14:09:03;18.43;;;10.13;;
8626;SDS011;4351;51.422;6.794;2022-12-18T14:11:34;22.07;;;10.53;;
8626;SDS011;4351;51.422;6.794;2022-12-18T14:14:06;19.27;;;10.67;;
8626;SDS011;4351;51.422;6.794;2022-12-18T14:16:35;19.03;;;9.60;;
8626;SDS011;4351;51.422;6.794;2022-12-18T14:19:04;18.67;;;9.80;;
8626;SDS011;4351;51.422;6.794;2022-12-18T14:21:44;19.33;;;10.33;;
8626;SDS011;4351;51.422;6.794;2022-12-18T14:24:14;18.00;;;9.83;;
8626;SDS011;4351;51.422;6.794;2022-12-18T14:26:45;19.77;;;10.63;;
8626;SDS011;4351;51.422;6.794;2022-12-18T14:29:24;20.27;;;10.33;;
8626;SDS011;4351;51.422;6.794;2022-12-18T14:32:09;20.00;;;10.13;;
8626;SDS011;4351;51.422;6.794;2022-12-18T14:34:44;18.33;;;9.90;;
8626;SDS011;4351;51.422;6.794;2022-12-18T14:37:14;19.53;;;10.93;;
8626;SDS011;4351;51.422;6.794;2022-12-18T14:39:53;19.90;;;10.37;;
8626;SDS011;4351;51.422;6.794;2022-12-18T14:42:23;19.03;;;10.20;;
8626;SDS011;4351;51.422;6.794;2022-12-18T14:48:11;20.20;;;10.57;;
8626;SDS011;4351;51.422;6.794;2022-12-18T14:50:54;23.53;;;10.70;;
8626;SDS011;4351;51.422;6.794;2022-12-18T14:53:27;18.90;;;10.30;;
8626;SDS011;4351;51.422;6.794;2022-12-18T14:56:00;22.90;;;10.80;;
8626;SDS011;4351;51.422;6.794;2022-12-18T14:58:29;25.53;;;12.00;;
8626;SDS011;4351;51.422;6.794;2022-12-18T15:00:57;20.77;;;10.60;;
8626;SDS011;4351;51.422;6.794;2022-12-18T15:03:26;21.87;;;12.00;;
8626;SDS011;4351;51.422;6.794;2022-12-18T15:05:55;21.30;;;10.80;;
8626;SDS011;4351;51.422;6.794;2022-12-18T15:08:27;19.20;;;11.00;;
8626;SDS011;4351;51.422;6.794;2022-12-18T15:10:58;21.20;;;11.40;;
8626;SDS011;4351;51.422;6.794;2022-12-18T15:13:32;21.93;;;11.57;;
8626;SDS011;4351;51.422;6.794;2022-12-18T15:16:01;20.43;;;11.07;;
8626;SDS011;4351;51.422;6.794;2022-12-18T15:18:33;21.90;;;11.50;;
8626;SDS011;4351;51.422;6.794;2022-12-18T15:21:09;21.23;;;11.40;;
8626;SDS011;4351;51.422;6.794;2022-12-18T15:23:45;24.47;;;12.43;;
8626;SDS011;4351;51.422;6.794;2022-12-18T15:26:15;18.70;;;11.43;;
8626;SDS011;4351;51.422;6.794;2022-12-18T15:28:45;21.07;;;11.43;;
8626;SDS011;4351;51.422;6.794;2022-12-18T15:31:23;23.80;;;11.67;;
8626;SDS011;4351;51.422;6.794;2022-12-18T15:34:01;23.77;;;11.63;;
8626;SDS011;4351;51.422;6.794;2022-12-18T15:36:38;23.33;;;10.73;;
8626;SDS011;4351;51.422;6.794;2022-12-18T15:39:09;24.93;;;12.33;;
8626;SDS011;4351;51.422;6.794;2022-12-18T15:41:38;21.00;;;11.80;;
8626;SDS011;4351;51.422;6.794;2022-12-18T15:44:20;24.07;;;12.57;;
8626;SDS011;4351;51.422;6.794;2022-12-18T15:46:49;22.57;;;11.37;;
8626;SDS011;4351;51.422;6.794;2022-12-18T15:49:18;22.83;;;11.67;;
8626;SDS011;4351;51.422;6.794;2022-12-18T15:51:47;21.27;;;11.23;;
8626;SDS011;4351;51.422;6.794;2022-12-18T15:54:19;24.50;;;12.37;;
8626;SDS011;4351;51.422;6.794;2022-12-18T15:57:11;23.00;;;12.03;;
8626;SDS011;4351;51.422;6.794;2022-12-18T15:59:51;22.93;;;11.47;;
8626;SDS011;4351;51.422;6.794;2022-12-18T16:02:20;24.73;;;11.90;;
8626;SDS011;4351;51.422;6.794;2022-12-18T16:04:51;25.07;;;12.93;;
8626;SDS011;4351;51.422;6.794;2022-12-18T16:07:20;24.30;;;12.53;;